Time;durP1;ratioP1;P1;durP2;ratioP2;P2;SDS_P1;SDS_P2;PMS_P1;PMS_P2;Temp;Humidity;BMP_temperature;BMP_pressure;BME280_temperature;BME280_humidity;BME280_pressure;Samples;Min_cycle;Max_cycle;Signal;HPM_P1;HPM_P2
2022/12/29 00:01:29;;;;;;;;;;;;;;;;;;4707801;28;20298;-64
2022/12/29 00:03:55;;;;;;;;;;;;;;;;;;4708388;28;21226;-65
2022/12/29 00:06:20;;;;;;;;;;;;;;;;;;4708207;28;20210;-66
2022/12/29 00:08:46;;;;;;;;;;;;;;;;;;4707209;28;20287;-66
2022/12/29 00:11:12;;;;;;;;;;;;;;;;;;4708667;28;20205;-66
2022/12/29 00:16:23;;;;;;;;;;;;;;;;;;4708865;28;20576;-66
2022/12/29 00:18:49;;;;;;;;;;;;;;;;;;4714470;28;20732;-65
2022/12/29 00:35:08;;;;;;;;;;;;;;;;;;4708997;28;20291;-66
2022/12/29 00:45:48;;;;;;;;;;;;;;;;;;4710606;28;20248;-66
2022/12/29 00:48:14;;;;;;;;;;;;;;;;;;4710712;28;20239;-65
2022/12/29 00:50:40;;;;;;;;;;;;;;;;;;4711098;28;20684;-65
2022/12/29 00:53:06;;;;;;;;;;;;;;;;;;4709251;28;20289;-65
2022/12/29 00:55:32;;;;;;;;;;;;;;;;;;4710052;28;20689;-65
2022/12/29 00:57:58;;;;;;;;;;;;;;;;;;4709455;28;20205;-66
2022/12/29 01:00:24;;;;;;;;;;;;;;;;;;4711091;28;20251;-65
2022/12/29 01:02:49;;;;;;;;;;;;;;;;;;4708664;28;20289;-65
2022/12/29 01:05:15;;;;;;;;;;;;;;;;;;4711301;28;20258;-66
2022/12/29 01:07:41;;;;;;;;;;;;;;;;;;4706905;28;20231;-66
2022/12/29 01:10:10;;;;;;;;;;;;;;;;;;4707542;28;20242;-65
2022/12/29 01:12:43;;;;;;;;;;;;;;;;;;4706281;28;20246;-66
2022/12/29 01:15:09;;;;;;;;;;;;;;;;;;4705811;28;20219;-66
2022/12/29 01:17:35;;;;;;;;;;;;;;;;;;4707426;28;20285;-66
2022/12/29 01:20:01;;;;;;;;;;;;;;;;;;4706424;28;20206;-66
2022/12/29 01:22:27;;;;;;;;;;;;;;;;;;4705942;28;20256;-66
2022/12/29 01:24:53;;;;;;;;;;;;;;;;;;4706460;28;20240;-66
2022/12/29 01:27:18;;;;;;;;;;;;;;;;;;4706247;28;20189;-66
2022/12/29 01:29:44;;;;;;;;;;;;;;;;;;4705054;28;20255;-65
2022/12/29 01:32:10;;;;;;;;;;;;;;;;;;4703740;28;20246;-66
2022/12/29 01:34:36;;;;;;;;;;;;;;;;;;4704352;28;20314;-65
2022/12/29 01:37:02;;;;;;;;;;;;;;;;;;4704217;28;20230;-66
2022/12/29 01:39:28;;;;;;;;;;;;;;;;;;4705243;28;20194;-66
2022/12/29 01:41:54;;;;;;;;;;;;;;;;;;4705348;28;20198;-65
2022/12/29 01:44:20;;;;;;;;;;;;;;;;;;4704887;28;20582;-66
2022/12/29 01:46:45;;;;;;;;;;;;;;;;;;4707376;28;20243;-66
2022/12/29 01:49:11;;;;;;;;;;;;;;;;;;4707600;28;20249;-65
2022/12/29 01:51:37;;;;;;;;;;;;;;;;;;4707691;28;20202;-66
2022/12/29 01:54:03;;;;;;;;;;;;;;;;;;4709913;28;20243;-66
2022/12/29 01:56:29;;;;;;;;;;;;;;;;;;4708310;28;20247;-66
2022/12/29 01:58:55;;;;;;;;;;;;;;;;;;4706939;28;20303;-65
2022/12/29 02:01:21;;;;;;;;;;;;;;;;;;4704251;28;20643;-66
2022/12/29 02:03:47;;;;;;;;;;;;;;;;;;4705260;28;20678;-66
2022/12/29 02:06:13;;;;;;;;;;;;;;;;;;4709261;28;20213;-65
2022/12/29 02:08:39;;;;;;;;;;;;;;;;;;4709775;28;20207;-66
2022/12/29 02:11:04;;;;;;;;;;;;;;;;;;4711850;28;20214;-66
2022/12/29 02:13:30;;;;;;;;;;;;;;;;;;4711687;28;20221;-66
2022/12/29 02:15:56;;;;;;;;;;;;;;;;;;4712975;28;20673;-66
2022/12/29 02:18:22;;;;;;;;;;;;;;;;;;4712559;28;20230;-66
2022/12/29 02:20:48;;;;;;;;;;;;;;;;;;4712838;28;20770;-66
2022/12/29 02:23:14;;;;;;;;;;;;;;;;;;4712434;28;20272;-66
2022/12/29 02:25:40;;;;;;;;;;;;;;;;;;4712505;28;20748;-66
2022/12/29 02:28:06;;;;;;;;;;;;;;;;;;4711814;28;20282;-66
2022/12/29 02:30:31;;;;;;;;;;;;;;;;;;4712329;28;20659;-66
2022/12/29 02:32:57;;;;;;;;;;;;;;;;;;4712015;28;20195;-66
2022/12/29 02:35:23;;;;;;;;;;;;;;;;;;4711617;28;20258;-66
2022/12/29 02:37:49;;;;;;;;;;;;;;;;;;4713145;28;20203;-67
2022/12/29 02:40:15;;;;;;;;;;;;;;;;;;4712336;28;20238;-66
2022/12/29 02:42:41;;;;;;;;;;;;;;;;;;4712134;28;20228;-66
2022/12/29 02:45:07;;;;;;;;;;;;;;;;;;4712320;28;20247;-65
2022/12/29 02:47:33;;;;;;;;;;;;;;;;;;4712857;28;20728;-66
2022/12/29 02:49:58;;;;;;;;;;;;;;;;;;4712377;28;20294;-66
2022/12/29 02:52:25;;;;;;;;;;;;;;;;;;4712772;28;20791;-66
2022/12/29 02:54:50;;;;;;;;;;;;;;;;;;4707116;28;20236;-66
2022/12/29 02:57:16;;;;;;;;;;;;;;;;;;4711459;28;21083;-66
2022/12/29 02:59:42;;;;;;;;;;;;;;;;;;4714702;28;20206;-66
2022/12/29 03:02:17;;;;;;;;;;;;;;;;;;4713210;28;20185;-65
2022/12/29 03:04:43;;;;;;;;;;;;;;;;;;4713412;28;20245;-65
2022/12/29 03:07:09;;;;;;;;;;;;;;;;;;4712508;28;20753;-66
2022/12/29 03:09:35;;;;;;;;;;;;;;;;;;4713910;28;20209;-66
2022/12/29 03:12:07;;;;;;;;;;;;;;;;;;4713570;28;20198;-66
2022/12/29 03:17:18;;;;;;;;;;;;;;;;;;4713482;28;20214;-66
2022/12/29 03:19:45;;;;;;;;;;;;;;;;;;4713962;28;20224;-66
2022/12/29 03:22:26;;;;;;;;;;;;;;;;;;4714789;28;20231;-66
2022/12/29 03:24:52;;;;;;;;;;;;;;;;;;4714968;28;20202;-66
2022/12/29 03:27:18;;;;;;;;;;;;;;;;;;4713325;28;20205;-66
2022/12/29 03:29:44;;;;;;;;;;;;;;;;;;4714716;28;20738;-66
2022/12/29 03:32:10;;;;;;;;;;;;;;;;;;4714853;28;20205;-66
2022/12/29 03:34:36;;;;;;;;;;;;;;;;;;4714056;28;20726;-66
2022/12/29 03:37:02;;;;;;;;;;;;;;;;;;4714304;28;20226;-65
2022/12/29 03:39:28;;;;;;;;;;;;;;;;;;4714207;28;20876;-65
2022/12/29 03:41:54;;;;;;;;;;;;;;;;;;4715734;28;21039;-66
2022/12/29 03:44:20;;;;;;;;;;;;;;;;;;4714598;28;20248;-65
2022/12/29 03:46:46;;;;;;;;;;;;;;;;;;4714482;28;20266;-64
2022/12/29 03:49:12;;;;;;;;;;;;;;;;;;4714128;28;20231;-66
2022/12/29 03:51:37;;;;;;;;;;;;;;;;;;4712533;28;20199;-66
2022/12/29 03:54:03;;;;;;;;;;;;;;;;;;4713046;28;20265;-65
2022/12/29 03:56:29;;;;;;;;;;;;;;;;;;4712531;28;20237;-65
2022/12/29 03:58:55;;;;;;;;;;;;;;;;;;4706174;28;20246;-65
2022/12/29 04:01:21;;;;;;;;;;;;;;;;;;4711476;28;20252;-65
2022/12/29 04:03:47;;;;;;;;;;;;;;;;;;4711562;28;20239;-66
2022/12/29 04:06:13;;;;;;;;;;;;;;;;;;4711007;28;20234;-65
2022/12/29 04:08:39;;;;;;;;;;;;;;;;;;4709248;28;20255;-65
2022/12/29 04:11:05;;;;;;;;;;;;;;;;;;4710313;28;20818;-65
2022/12/29 04:13:31;;;;;;;;;;;;;;;;;;4710055;28;20278;-65
2022/12/29 04:15:56;;;;;;;;;;;;;;;;;;4710486;28;20199;-65
2022/12/29 04:18:22;;;;;;;;;;;;;;;;;;4710717;28;20297;-65
2022/12/29 04:21:00;;;;;;;;;;;;;;;;;;4711739;28;20231;-64
2022/12/29 04:23:26;;;;;;;;;;;;;;;;;;4711672;28;20213;-66
2022/12/29 04:25:52;;;;;;;;;;;;;;;;;;4711459;28;20232;-65
2022/12/29 04:28:18;;;;;;;;;;;;;;;;;;4711924;28;20755;-65
2022/12/29 04:30:44;;;;;;;;;;;;;;;;;;4712213;28;20222;-65
2022/12/29 04:33:10;;;;;;;;;;;;;;;;;;4710506;28;20202;-65
2022/12/29 04:35:36;;;;;;;;;;;;;;;;;;4710332;28;20298;-66
2022/12/29 04:38:02;;;;;;;;;;;;;;;;;;4711704;28;20231;-66
2022/12/29 04:40:27;;;;;;;;;;;;;;;;;;4711623;28;20244;-65
2022/12/29 04:42:53;;;;;;;;;;;;;;;;;;4711739;28;20263;-66
2022/12/29 04:45:19;;;;;;;;;;;;;;;;;;4711999;28;20305;-66
2022/12/29 04:47:45;;;;;;;;;;;;;;;;;;4708455;28;20247;-66
2022/12/29 04:50:11;;;;;;;;;;;;;;;;;;4709399;28;20250;-65
2022/12/29 04:52:37;;;;;;;;;;;;;;;;;;4708401;28;20245;-65
2022/12/29 04:55:03;;;;;;;;;;;;;;;;;;4710972;28;20248;-66
2022/12/29 04:57:29;;;;;;;;;;;;;;;;;;4710445;28;20196;-66
2022/12/29 04:59:55;;;;;;;;;;;;;;;;;;4710615;28;20216;-65
2022/12/29 05:02:20;;;;;;;;;;;;;;;;;;4708459;28;20588;-66
2022/12/29 05:04:46;;;;;;;;;;;;;;;;;;4706234;28;20268;-66
2022/12/29 05:07:12;;;;;;;;;;;;;;;;;;4699004;28;20496;-66
2022/12/29 05:09:38;;;;;;;;;;;;;;;;;;4704324;28;20244;-66
2022/12/29 05:12:04;;;;;;;;;;;;;;;;;;4704768;28;20251;-65
2022/12/29 05:14:30;;;;;;;;;;;;;;;;;;4704438;28;20282;-66
2022/12/29 05:16:56;;;;;;;;;;;;;;;;;;4704779;28;20218;-65
2022/12/29 05:19:22;;;;;;;;;;;;;;;;;;4705296;28;20363;-66
2022/12/29 05:21:47;;;;;;;;;;;;;;;;;;4703801;28;21010;-65
2022/12/29 05:24:13;;;;;;;;;;;;;;;;;;4704864;28;20212;-65
2022/12/29 05:26:39;;;;;;;;;;;;;;;;;;4704189;28;20761;-64
2022/12/29 05:29:05;;;;;;;;;;;;;;;;;;4704805;28;20248;-66
2022/12/29 05:31:31;;;;;;;;;;;;;;;;;;4705161;28;20343;-65
2022/12/29 05:33:57;;;;;;;;;;;;;;;;;;4703661;28;20305;-66
2022/12/29 05:36:23;;;;;;;;;;;;;;;;;;4702307;28;20259;-66
2022/12/29 05:38:49;;;;;;;;;;;;;;;;;;4704188;28;20325;-66
2022/12/29 05:41:15;;;;;;;;;;;;;;;;;;4704402;28;20336;-66
2022/12/29 05:43:41;;;;;;;;;;;;;;;;;;4703664;28;20235;-65
2022/12/29 05:46:06;;;;;;;;;;;;;;;;;;4695843;28;20229;-66
2022/12/29 05:48:32;;;;;;;;;;;;;;;;;;4701902;28;20318;-65
2022/12/29 05:50:58;;;;;;;;;;;;;;;;;;4700570;28;20249;-65
2022/12/29 05:53:24;;;;;;;;;;;;;;;;;;4702056;28;20207;-66
2022/12/29 05:55:50;;;;;;;;;;;;;;;;;;4701494;28;20304;-65
2022/12/29 05:58:16;;;;;;;;;;;;;;;;;;4702057;28;20238;-65
2022/12/29 06:00:42;;;;;;;;;;;;;;;;;;4702564;28;20238;-65
2022/12/29 06:03:08;;;;;;;;;;;;;;;;;;4702494;28;20240;-66
2022/12/29 06:05:33;;;;;;;;;;;;;;;;;;4701832;28;20220;-66
2022/12/29 06:07:59;;;;;;;;;;;;;;;;;;4704411;28;20216;-66
2022/12/29 06:10:25;;;;;;;;;;;;;;;;;;4700472;28;20725;-66
2022/12/29 06:12:51;;;;;;;;;;;;;;;;;;4701186;28;20739;-66
2022/12/29 06:15:17;;;;;;;;;;;;;;;;;;4701378;28;20223;-66
2022/12/29 06:17:43;;;;;;;;;;;;;;;;;;4695499;28;20251;-67
2022/12/29 06:20:09;;;;;;;;;;;;;;;;;;4702204;28;20655;-66
2022/12/29 06:22:35;;;;;;;;;;;;;;;;;;4705503;28;20928;-66
2022/12/29 06:25:01;;;;;;;;;;;;;;;;;;4705478;28;20242;-66
2022/12/29 06:27:27;;;;;;;;;;;;;;;;;;4703745;28;20299;-65
2022/12/29 06:29:53;;;;;;;;;;;;;;;;;;4702446;28;20754;-66
2022/12/29 06:32:19;;;;;;;;;;;;;;;;;;4706668;28;20304;-66
2022/12/29 06:34:45;;;;;;;;;;;;;;;;;;4709801;28;20264;-66
2022/12/29 06:37:11;;;;;;;;;;;;;;;;;;4713876;28;20212;-66
2022/12/29 06:39:37;;;;;;;;;;;;;;;;;;4713480;28;20283;-66
2022/12/29 06:42:02;;;;;;;;;;;;;;;;;;4709054;28;20704;-65
2022/12/29 06:44:28;;;;;;;;;;;;;;;;;;4709675;28;20207;-66
2022/12/29 06:46:54;;;;;;;;;;;;;;;;;;4712312;28;20945;-65
2022/12/29 06:49:20;;;;;;;;;;;;;;;;;;4708769;28;20211;-66
2022/12/29 06:51:46;;;;;;;;;;;;;;;;;;4710403;28;20240;-67
2022/12/29 06:54:12;;;;;;;;;;;;;;;;;;4711363;28;20568;-66
2022/12/29 06:56:38;;;;;;;;;;;;;;;;;;4714963;28;20187;-66
2022/12/29 06:59:04;;;;;;;;;;;;;;;;;;4714990;28;20197;-66
2022/12/29 07:01:30;;;;;;;;;;;;;;;;;;4716075;28;20274;-66
2022/12/29 07:03:56;;;;;;;;;;;;;;;;;;4713709;28;20262;-66
2022/12/29 07:06:22;;;;;;;;;;;;;;;;;;4713862;28;20766;-67
2022/12/29 07:08:48;;;;;;;;;;;;;;;;;;4713613;28;20295;-66
2022/12/29 07:11:14;;;;;;;;;;;;;;;;;;4708493;28;20630;-66
2022/12/29 07:13:40;;;;;;;;;;;;;;;;;;4707219;28;20252;-65
2022/12/29 07:16:06;;;;;;;;;;;;;;;;;;4708250;28;20270;-66
2022/12/29 07:18:32;;;;;;;;;;;;;;;;;;4705154;28;20267;-66
2022/12/29 07:20:58;;;;;;;;;;;;;;;;;;4699661;28;20348;-66
2022/12/29 07:23:24;;;;;;;;;;;;;;;;;;4709256;28;20616;-65
2022/12/29 07:25:50;;;;;;;;;;;;;;;;;;4713484;28;20247;-66
2022/12/29 07:28:15;;;;;;;;;;;;;;;;;;4711634;28;20975;-66
2022/12/29 07:30:41;;;;;;;;;;;;;;;;;;4712456;28;20233;-66
2022/12/29 07:33:07;;;;;;;;;;;;;;;;;;4710738;28;20681;-66
2022/12/29 07:35:33;;;;;;;;;;;;;;;;;;4711524;28;20259;-65
2022/12/29 07:37:59;;;;;;;;;;;;;;;;;;4710079;28;20247;-66
2022/12/29 07:40:25;;;;;;;;;;;;;;;;;;4709673;28;20236;-66
2022/12/29 07:42:51;;;;;;;;;;;;;;;;;;4709885;28;20278;-66
2022/12/29 07:45:17;;;;;;;;;;;;;;;;;;4709815;28;20244;-67
2022/12/29 07:47:42;;;;;;;;;;;;;;;;;;4711943;28;20362;-66
2022/12/29 07:50:08;;;;;;;;;;;;;;;;;;4711162;28;20245;-66
2022/12/29 07:52:34;;;;;;;;;;;;;;;;;;4712314;28;20228;-62
2022/12/29 07:55:00;;;;;;;;;;;;;;;;;;4716604;28;20209;-61
2022/12/29 07:57:26;;;;;;;;;;;;;;;;;;4719129;28;20304;-62
2022/12/29 07:59:52;;;;;;;;;;;;;;;;;;4718186;28;20223;-67
2022/12/29 08:02:18;;;;;;;;;;;;;;;;;;4720813;28;20273;-68
2022/12/29 08:04:44;;;;;;;;;;;;;;;;;;4722594;28;20361;-68
2022/12/29 08:07:10;;;;;;;;;;;;;;;;;;4721964;28;20270;-68
2022/12/29 08:09:36;;;;;;;;;;;;;;;;;;4721925;28;20240;-70
2022/12/29 08:12:02;;;;;;;;;;;;;;;;;;4720894;28;20226;-66
2022/12/29 08:14:27;;;;;;;;;;;;;;;;;;4718716;28;20256;-67
2022/12/29 08:16:53;;;;;;;;;;;;;;;;;;4718271;28;20249;-67
2022/12/29 08:19:19;;;;;;;;;;;;;;;;;;4718617;28;20231;-67
2022/12/29 08:21:45;;;;;;;;;;;;;;;;;;4711349;28;20242;-67
2022/12/29 08:24:11;;;;;;;;;;;;;;;;;;4709868;28;20283;-67
2022/12/29 08:26:37;;;;;;;;;;;;;;;;;;4711925;28;20229;-68
2022/12/29 08:29:03;;;;;;;;;;;;;;;;;;4714492;28;20516;-68
2022/12/29 08:31:29;;;;;;;;;;;;;;;;;;4715448;28;20309;-67
2022/12/29 08:33:55;;;;;;;;;;;;;;;;;;4716304;28;20211;-67
2022/12/29 08:36:21;;;;;;;;;;;;;;;;;;4714989;28;20196;-68
2022/12/29 08:38:46;;;;;;;;;;;;;;;;;;4716420;28;20658;-68
2022/12/29 08:41:12;;;;;;;;;;;;;;;;;;4713039;28;20235;-69
2022/12/29 08:43:38;;;;;;;;;;;;;;;;;;4710349;28;20230;-68
2022/12/29 08:46:04;;;;;;;;;;;;;;;;;;4708983;28;20244;-68
2022/12/29 08:48:30;;;;;;;;;;;;;;;;;;4711057;28;20237;-68
2022/12/29 08:50:56;;;;;;;;;;;;;;;;;;4713769;28;20243;-68
2022/12/29 08:53:22;;;;;;;;;;;;;;;;;;4712097;28;20248;-68
2022/12/29 08:55:48;;;;;;;;;;;;;;;;;;4712389;28;20207;-67
2022/12/29 08:58:14;;;;;;;;;;;;;;;;;;4711221;28;20232;-68
2022/12/29 09:00:40;;;;;;;;;;;;;;;;;;4712106;28;20259;-68
2022/12/29 09:03:06;;;;;;;;;;;;;;;;;;4713020;28;20324;-68
2022/12/29 09:05:32;;;;;;;;;;;;;;;;;;4713039;28;20201;-67
2022/12/29 09:07:57;;;;;;;;;;;;;;;;;;4708956;28;20332;-67
2022/12/29 09:10:23;;;;;;;;;;;;;;;;;;4713690;28;20241;-68
2022/12/29 09:12:49;;;;;;;;;;;;;;;;;;4706469;28;20191;-69
2022/12/29 09:15:15;;;;;;;;;;;;;;;;;;4706107;28;20977;-68
2022/12/29 09:17:44;;;;;;;;;;;;;;;;;;4709927;28;20211;-68
2022/12/29 09:20:10;;;;;;;;;;;;;;;;;;4713695;28;20271;-67
2022/12/29 09:22:36;;;;;;;;;;;;;;;;;;4710378;28;20205;-67
2022/12/29 09:25:01;;;;;;;;;;;;;;;;;;4707810;28;20205;-68
2022/12/29 09:27:27;;;;;;;;;;;;;;;;;;4707994;28;20292;-66
2022/12/29 09:29:53;;;;;;;;;;;;;;;;;;4711017;28;20648;-66
2022/12/29 09:32:19;;;;;;;;;;;;;;;;;;4712467;28;20749;-67
2022/12/29 09:34:45;;;;;;;;;;;;;;;;;;4713836;28;20203;-68
2022/12/29 09:37:11;;;;;;;;;;;;;;;;;;4713209;28;20776;-67
2022/12/29 09:39:37;;;;;;;;;;;;;;;;;;4714320;28;20310;-68
2022/12/29 09:42:03;;;;;;;;;;;;;;;;;;4711991;28;20684;-68
2022/12/29 09:44:29;;;;;;;;;;;;;;;;;;4713362;28;20235;-67
2022/12/29 09:46:55;;;;;;;;;;;;;;;;;;4709758;28;20240;-69
2022/12/29 09:49:20;;;;;;;;;;;;;;;;;;4710537;28;20811;-67
2022/12/29 09:51:46;;;;;;;;;;;;;;;;;;4711144;28;20227;-67
2022/12/29 09:54:12;;;;;;;;;;;;;;;;;;4710399;28;20258;-68
2022/12/29 09:56:38;;;;;;;;;;;;;;;;;;4710353;28;20725;-68
2022/12/29 09:59:04;;;;;;;;;;;;;;;;;;4709298;28;20224;-68
2022/12/29 10:01:30;;;;;;;;;;;;;;;;;;4709000;28;20737;-65
2022/12/29 10:03:56;;;;;;;;;;;;;;;;;;4706230;28;20235;-67
2022/12/29 10:06:22;;;;;;;;;;;;;;;;;;4705984;28;20568;-68
2022/12/29 10:08:47;;;;;;;;;;;;;;;;;;4702426;28;20249;-67
2022/12/29 10:11:13;;;;;;;;;;;;;;;;;;4699595;28;20685;-67
2022/12/29 10:13:39;;;;;;;;;;;;;;;;;;4699514;28;20213;-66
2022/12/29 10:16:05;;;;;;;;;;;;;;;;;;4700494;28;20236;-67
2022/12/29 10:18:32;;;;;;;;;;;;;;;;;;4700907;28;20211;-61
2022/12/29 10:20:57;;;;;;;;;;;;;;;;;;4706028;28;20227;-67
2022/12/29 10:23:23;;;;;;;;;;;;;;;;;;4704538;28;20761;-67
2022/12/29 10:25:49;;;;;;;;;;;;;;;;;;4700955;28;20293;-65
2022/12/29 10:28:16;;;;;;;;;;;;;;;;;;4707395;28;20263;-65
2022/12/29 10:30:41;;;;;;;;;;;;;;;;;;4707444;28;20769;-66
2022/12/29 10:33:07;;;;;;;;;;;;;;;;;;4706386;28;20243;-67
2022/12/29 10:35:33;;;;;;;;;;;;;;;;;;4705446;28;20230;-68
2022/12/29 10:37:59;;;;;;;;;;;;;;;;;;4708301;28;20229;-67
2022/12/29 10:40:25;;;;;;;;;;;;;;;;;;4704157;28;20311;-62
2022/12/29 10:42:51;;;;;;;;;;;;;;;;;;4706284;28;20333;-66
2022/12/29 10:45:17;;;;;;;;;;;;;;;;;;4707517;28;20961;-67
2022/12/29 10:47:43;;;;;;;;;;;;;;;;;;4705971;28;20361;-67
2022/12/29 10:50:09;;;;;;;;;;;;;;;;;;4705124;28;20262;-66
2022/12/29 10:52:35;;;;;;;;;;;;;;;;;;4709065;28;20650;-66
2022/12/29 10:55:01;;;;;;;;;;;;;;;;;;4708512;28;20250;-66
2022/12/29 10:57:27;;;;;;;;;;;;;;;;;;4707019;28;20290;-67
2022/12/29 10:59:53;;;;;;;;;;;;;;;;;;4703734;28;20253;-67
2022/12/29 11:02:19;;;;;;;;;;;;;;;;;;4705016;28;20303;-67
2022/12/29 11:04:45;;;;;;;;;;;;;;;;;;4709124;28;20655;-67
2022/12/29 11:07:11;;;;;;;;;;;;;;;;;;4706818;28;20252;-67
2022/12/29 11:09:37;;;;;;;;;;;;;;;;;;4706141;28;20232;-65
2022/12/29 11:12:03;;;;;;;;;;;;;;;;;;4705942;28;20197;-65
2022/12/29 11:14:29;;;;;;;;;;;;;;;;;;4709081;28;20252;-66
2022/12/29 11:16:55;;;;;;;;;;;;;;;;;;4712081;28;20268;-65
2022/12/29 11:19:21;;;;;;;;;;;;;;;;;;4727685;28;20654;-67
2022/12/29 11:21:47;;;;;;;;;;;;;;;;;;4716569;28;20187;-67
2022/12/29 11:24:13;;;;;;;;;;;;;;;;;;4714061;28;20255;-67
2022/12/29 11:26:41;;;;;;;;;;;;;;;;;;4714343;28;20204;-67
2022/12/29 11:29:06;;;;;;;;;;;;;;;;;;4714504;28;20305;-66
2022/12/29 11:31:32;;;;;;;;;;;;;;;;;;4715604;28;20334;-67
2022/12/29 11:33:58;;;;;;;;;;;;;;;;;;4713542;28;20283;-66
2022/12/29 11:36:24;;;;;;;;;;;;;;;;;;4712847;28;20266;-66
2022/12/29 11:38:50;;;;;;;;;;;;;;;;;;4714030;28;20232;-65
2022/12/29 11:41:16;;;;;;;;;;;;;;;;;;4716296;28;20231;-68
2022/12/29 11:43:42;;;;;;;;;;;;;;;;;;4715488;28;20210;-63
2022/12/29 11:46:08;;;;;;;;;;;;;;;;;;4711822;28;20209;-67
2022/12/29 11:48:34;;;;;;;;;;;;;;;;;;4715923;28;20206;-67
2022/12/29 11:51:00;;;;;;;;;;;;;;;;;;4712747;28;20344;-67
2022/12/29 11:53:26;;;;;;;;;;;;;;;;;;4713175;28;20251;-66
2022/12/29 11:55:52;;;;;;;;;;;;;;;;;;4712574;28;20708;-68
2022/12/29 11:58:18;;;;;;;;;;;;;;;;;;4715290;28;20203;-67
2022/12/29 12:00:44;;;;;;;;;;;;;;;;;;4715313;28;20235;-67
2022/12/29 12:03:10;;;;;;;;;;;;;;;;;;4711723;28;20217;-67
2022/12/29 12:05:36;;;;;;;;;;;;;;;;;;4709150;28;20282;-66
2022/12/29 12:08:02;;;;;;;;;;;;;;;;;;4711126;28;20288;-67
2022/12/29 12:10:28;;;;;;;;;;;;;;;;;;4717560;28;20227;-67
2022/12/29 12:12:53;;;;;;;;;;;;;;;;;;4716736;28;20745;-68
2022/12/29 12:15:19;;;;;;;;;;;;;;;;;;4714637;28;20217;-66
2022/12/29 12:17:45;;;;;;;;;;;;;;;;;;4715019;28;20215;-65
2022/12/29 12:20:11;;;;;;;;;;;;;;;;;;4714997;28;20222;-67
2022/12/29 12:22:37;;;;;;;;;;;;;;;;;;4715282;28;20289;-67
2022/12/29 12:25:05;;;;;;;;;;;;;;;;;;4715945;28;20568;-67
2022/12/29 12:27:31;;;;;;;;;;;;;;;;;;4715268;28;20247;-66
2022/12/29 12:29:57;;;;;;;;;;;;;;;;;;4717053;28;20235;-66
2022/12/29 12:32:23;;;;;;;;;;;;;;;;;;4719695;28;20199;-66
2022/12/29 12:34:49;;;;;;;;;;;;;;;;;;4719468;28;20259;-66
2022/12/29 12:37:14;;;;;;;;;;;;;;;;;;4716734;28;20228;-67
2022/12/29 12:39:40;;;;;;;;;;;;;;;;;;4717931;28;20242;-67
2022/12/29 12:42:07;;;;;;;;;;;;;;;;;;4715590;28;20254;-67
2022/12/29 12:44:33;;;;;;;;;;;;;;;;;;4717203;28;20240;-67
2022/12/29 12:46:59;;;;;;;;;;;;;;;;;;4713387;28;20204;-68
2022/12/29 12:49:25;;;;;;;;;;;;;;;;;;4709286;28;20207;-67
2022/12/29 12:51:51;;;;;;;;;;;;;;;;;;4711243;28;20242;-67
2022/12/29 12:54:16;;;;;;;;;;;;;;;;;;4714423;28;20241;-68
2022/12/29 12:56:42;;;;;;;;;;;;;;;;;;4716956;28;20219;-69
2022/12/29 12:59:08;;;;;;;;;;;;;;;;;;4714651;28;20292;-68
2022/12/29 13:01:34;;;;;;;;;;;;;;;;;;4714419;28;20204;-66
2022/12/29 13:04:00;;;;;;;;;;;;;;;;;;4716306;28;20723;-68
2022/12/29 13:06:26;;;;;;;;;;;;;;;;;;4714643;28;20587;-68
2022/12/29 13:08:52;;;;;;;;;;;;;;;;;;4714777;28;20188;-68
2022/12/29 13:11:18;;;;;;;;;;;;;;;;;;4720701;28;20343;-67
2022/12/29 13:13:44;;;;;;;;;;;;;;;;;;4715764;28;20776;-67
2022/12/29 13:16:10;;;;;;;;;;;;;;;;;;4715925;28;20302;-67
2022/12/29 13:18:35;;;;;;;;;;;;;;;;;;4713353;28;20201;-68
2022/12/29 13:21:01;;;;;;;;;;;;;;;;;;4714380;28;20218;-68
2022/12/29 13:23:27;;;;;;;;;;;;;;;;;;4715861;28;20337;-67
2022/12/29 13:25:53;;;;;;;;;;;;;;;;;;4713630;28;20245;-67
2022/12/29 13:28:19;;;;;;;;;;;;;;;;;;4713398;28;20267;-66
2022/12/29 13:30:45;;;;;;;;;;;;;;;;;;4717205;28;20286;-67
2022/12/29 13:33:11;;;;;;;;;;;;;;;;;;4713839;28;20236;-65
2022/12/29 13:35:37;;;;;;;;;;;;;;;;;;4714988;28;20359;-66
2022/12/29 13:38:02;;;;;;;;;;;;;;;;;;4715308;28;20204;-66
2022/12/29 13:40:28;;;;;;;;;;;;;;;;;;4712649;28;20628;-67
2022/12/29 13:42:54;;;;;;;;;;;;;;;;;;4712845;28;20260;-67
2022/12/29 13:45:20;;;;;;;;;;;;;;;;;;4713211;28;20724;-67
2022/12/29 13:47:46;;;;;;;;;;;;;;;;;;4714309;28;20244;-66
2022/12/29 13:50:12;;;;;;;;;;;;;;;;;;4713283;28;20229;-66
2022/12/29 13:52:38;;;;;;;;;;;;;;;;;;4711463;28;20346;-67
2022/12/29 13:55:04;;;;;;;;;;;;;;;;;;4712379;28;20192;-67
2022/12/29 13:57:30;;;;;;;;;;;;;;;;;;4712893;28;20224;-64
2022/12/29 13:59:56;;;;;;;;;;;;;;;;;;4711209;28;20237;-66
2022/12/29 14:02:21;;;;;;;;;;;;;;;;;;4712500;28;20246;-66
2022/12/29 14:04:47;;;;;;;;;;;;;;;;;;4712394;28;20345;-67
2022/12/29 14:07:13;;;;;;;;;;;;;;;;;;4711207;28;20340;-66
2022/12/29 14:09:39;;;;;;;;;;;;;;;;;;4713783;28;20237;-67
2022/12/29 14:12:05;;;;;;;;;;;;;;;;;;4711925;28;20186;-67
2022/12/29 14:14:31;;;;;;;;;;;;;;;;;;4712639;28;20266;-66
2022/12/29 14:16:57;;;;;;;;;;;;;;;;;;4713911;28;20232;-68
2022/12/29 14:19:23;;;;;;;;;;;;;;;;;;4716058;28;20242;-68
2022/12/29 14:21:49;;;;;;;;;;;;;;;;;;4718240;28;20343;-68
2022/12/29 14:24:15;;;;;;;;;;;;;;;;;;4718026;28;20329;-68
2022/12/29 14:26:40;;;;;;;;;;;;;;;;;;4717484;28;20577;-67
2022/12/29 14:29:06;;;;;;;;;;;;;;;;;;4716658;28;20194;-68
2022/12/29 14:31:32;;;;;;;;;;;;;;;;;;4715678;28;20469;-67
2022/12/29 14:33:58;;;;;;;;;;;;;;;;;;4715366;28;20198;-68
2022/12/29 14:36:24;;;;;;;;;;;;;;;;;;4714580;28;20651;-67
2022/12/29 14:38:50;;;;;;;;;;;;;;;;;;4715165;28;20197;-67
2022/12/29 14:41:16;;;;;;;;;;;;;;;;;;4715161;28;20545;-67
2022/12/29 14:43:42;;;;;;;;;;;;;;;;;;4715370;28;20745;-65
2022/12/29 14:46:07;;;;;;;;;;;;;;;;;;4714527;28;20200;-67
2022/12/29 14:48:33;;;;;;;;;;;;;;;;;;4711531;28;20218;-66
2022/12/29 14:50:59;;;;;;;;;;;;;;;;;;4713683;28;20205;-67
2022/12/29 14:53:25;;;;;;;;;;;;;;;;;;4713873;28;20221;-67
2022/12/29 14:55:51;;;;;;;;;;;;;;;;;;4718967;28;20305;-68
2022/12/29 14:58:17;;;;;;;;;;;;;;;;;;4717773;28;20204;-68
2022/12/29 15:00:43;;;;;;;;;;;;;;;;;;4718814;28;20265;-67
2022/12/29 15:03:09;;;;;;;;;;;;;;;;;;4716458;28;20326;-67
2022/12/29 15:05:35;;;;;;;;;;;;;;;;;;4717093;28;20210;-68
2022/12/29 15:08:00;;;;;;;;;;;;;;;;;;4713712;28;20291;-68
2022/12/29 15:10:26;;;;;;;;;;;;;;;;;;4712445;28;20857;-67
2022/12/29 15:12:52;;;;;;;;;;;;;;;;;;4713504;28;20204;-66
2022/12/29 15:15:18;;;;;;;;;;;;;;;;;;4716097;28;20207;-68
2022/12/29 15:17:44;;;;;;;;;;;;;;;;;;4716159;28;20334;-67
2022/12/29 15:20:12;;;;;;;;;;;;;;;;;;4716026;28;20656;-66
2022/12/29 15:22:38;;;;;;;;;;;;;;;;;;4714982;28;20225;-67
2022/12/29 15:25:04;;;;;;;;;;;;;;;;;;4715557;28;20354;-67
2022/12/29 15:27:30;;;;;;;;;;;;;;;;;;4712319;28;20283;-66
2022/12/29 15:29:56;;;;;;;;;;;;;;;;;;4713940;28;20395;-67
2022/12/29 15:32:22;;;;;;;;;;;;;;;;;;4715337;28;20256;-67
2022/12/29 15:34:48;;;;;;;;;;;;;;;;;;4716201;28;20385;-66
2022/12/29 15:37:14;;;;;;;;;;;;;;;;;;4716908;28;20258;-67
2022/12/29 15:39:40;;;;;;;;;;;;;;;;;;4716985;28;20296;-67
2022/12/29 15:42:06;;;;;;;;;;;;;;;;;;4717146;28;20197;-66
2022/12/29 15:44:32;;;;;;;;;;;;;;;;;;4715903;28;20629;-68
2022/12/29 15:46:58;;;;;;;;;;;;;;;;;;4713378;28;20234;-67
2022/12/29 15:49:24;;;;;;;;;;;;;;;;;;4710894;28;20206;-67
2022/12/29 15:51:50;;;;;;;;;;;;;;;;;;4703836;28;20194;-66
2022/12/29 15:54:15;;;;;;;;;;;;;;;;;;4710528;28;20258;-66
2022/12/29 15:56:41;;;;;;;;;;;;;;;;;;4707335;28;20209;-68
2022/12/29 15:59:07;;;;;;;;;;;;;;;;;;4702131;28;20327;-68
2022/12/29 16:01:33;;;;;;;;;;;;;;;;;;4708085;28;20250;-67
2022/12/29 16:03:59;;;;;;;;;;;;;;;;;;4709186;28;20235;-67
2022/12/29 16:06:25;;;;;;;;;;;;;;;;;;4714410;28;20721;-67
2022/12/29 16:08:51;;;;;;;;;;;;;;;;;;4712060;28;20719;-67
2022/12/29 16:11:17;;;;;;;;;;;;;;;;;;4711078;28;20246;-68
2022/12/29 16:13:43;;;;;;;;;;;;;;;;;;4712702;28;20269;-68
2022/12/29 16:16:09;;;;;;;;;;;;;;;;;;4708231;28;21042;-68
2022/12/29 16:18:35;;;;;;;;;;;;;;;;;;4712784;28;20237;-67
2022/12/29 16:21:00;;;;;;;;;;;;;;;;;;4709949;28;20249;-67
2022/12/29 16:23:26;;;;;;;;;;;;;;;;;;4712522;28;20339;-66
2022/12/29 16:25:54;;;;;;;;;;;;;;;;;;4712921;28;20424;-68
2022/12/29 16:28:20;;;;;;;;;;;;;;;;;;4708382;28;20222;-67
2022/12/29 16:30:46;;;;;;;;;;;;;;;;;;4704750;28;20729;-68
2022/12/29 16:33:12;;;;;;;;;;;;;;;;;;4706009;28;20236;-67
2022/12/29 16:35:37;;;;;;;;;;;;;;;;;;4707361;28;20244;-67
2022/12/29 16:38:03;;;;;;;;;;;;;;;;;;4706075;28;20344;-66
2022/12/29 16:40:32;;;;;;;;;;;;;;;;;;4711000;28;20224;-67
2022/12/29 16:42:58;;;;;;;;;;;;;;;;;;4706574;28;20265;-68
2022/12/29 16:45:24;;;;;;;;;;;;;;;;;;4712840;28;20208;-67
2022/12/29 16:47:50;;;;;;;;;;;;;;;;;;4703001;28;20246;-67
2022/12/29 16:50:16;;;;;;;;;;;;;;;;;;4696873;28;20969;-67
2022/12/29 16:52:42;;;;;;;;;;;;;;;;;;4694554;28;20225;-68
2022/12/29 16:55:08;;;;;;;;;;;;;;;;;;4695002;28;20331;-67
2022/12/29 16:57:34;;;;;;;;;;;;;;;;;;4699373;28;20713;-64
2022/12/29 17:00:00;;;;;;;;;;;;;;;;;;4694571;28;20269;-66
2022/12/29 17:02:25;;;;;;;;;;;;;;;;;;4693246;28;20255;-68
2022/12/29 17:04:52;;;;;;;;;;;;;;;;;;4692078;28;20353;-67